Absecon City, New Jersey
Current Conditions -  °F | °C
As of 6:54 AM on Monday 26 Jan 2015 (Local Time) from KACY Reporting Station
Overcast Overcast  
Wind Chill: -7°   Ceiling: 1100
Heat Index: -1°   Visibility: 10mi
Dew Point: -2°   Wind: 16mph
Humidity: 89%   Direction: 60°ENE
Pressure: 29.89"   Gusts: 24mph
Location:  39.4315°N, 74.5003°W
Report Text: KACY 261154Z AUTO 06014G21KT 10SM OVC011 M01/M02 A2989 RMK AO2 PK WND 04026/1121 SNE08 SLP122 P0000 60000 T10061022 10022 21006 56003 TSNO
Loading
Personal Weather Stations






























Interactive Weather Map New forecast layout! Learn more

10-Day Weather Forecast

Advertisements
Track Severe Weather on mobile